createdAt,value
2019-06-01T00:00:50.862Z,71.96
2019-06-01T00:03:18.616Z,72.43
2019-06-01T00:05:56.629Z,72.41
2019-06-01T00:08:24.466Z,72.81
2019-06-01T00:10:52.290Z,73.01
2019-06-01T00:13:20.067Z,73.33
2019-06-01T00:15:48.345Z,73.07
2019-06-01T00:18:16.347Z,73.05
2019-06-01T00:20:44.352Z,73.09
2019-06-01T00:23:12.301Z,73.09
2019-06-01T00:25:40.409Z,73.02
2019-06-01T00:28:08.239Z,73.35
2019-06-01T00:30:36.103Z,73.90
2019-06-01T00:33:04.090Z,74.00
2019-06-01T00:35:31.778Z,74.21
2019-06-01T00:37:59.554Z,74.92
2019-06-01T00:40:27.242Z,74.83
2019-06-01T00:42:55.106Z,75.12
2019-06-01T00:45:22.798Z,75.32
2019-06-01T00:47:50.946Z,75.12
2019-06-01T00:50:18.790Z,75.27
2019-06-01T00:52:47.179Z,75.15
2019-06-01T00:55:15.307Z,75.30
2019-06-01T00:57:43.506Z,75.47
2019-06-01T01:00:11.715Z,75.34
2019-06-01T01:02:39.458Z,75.35
2019-06-01T01:05:10.697Z,75.69
2019-06-01T01:07:49.037Z,75.88
2019-06-01T01:10:18.336Z,77.59
2019-06-01T01:13:11.024Z,77.28
2019-06-01T01:15:39.025Z,78.92
2019-06-01T01:18:07.592Z,77.62
2019-06-01T01:20:36.472Z,78.05
2019-06-01T01:23:04.527Z,77.73
2019-06-01T01:25:33.146Z,79.34
2019-06-01T01:28:00.978Z,78.51
2019-06-01T01:30:28.796Z,78.31
2019-06-01T01:32:58.972Z,78.41
2019-06-01T01:35:26.611Z,78.51
2019-06-01T01:37:56.554Z,78.43
2019-06-01T01:40:24.322Z,78.74
2019-06-01T01:42:52.395Z,78.69
2019-06-01T01:45:21.055Z,78.67
2019-06-01T01:47:49.446Z,78.91
2019-06-01T01:50:18.270Z,78.68
2019-06-01T01:52:46.103Z,78.57
2019-06-01T01:55:14.070Z,79.40
2019-06-01T01:57:41.855Z,79.05
2019-06-01T02:00:11.607Z,80.23
2019-06-01T02:02:39.422Z,80.55
2019-06-01T02:05:08.185Z,80.92
2019-06-01T02:07:35.938Z,80.09
2019-06-01T02:10:13.959Z,81.36
2019-06-01T02:12:41.771Z,81.30
2019-06-01T02:15:09.726Z,80.95
2019-06-01T02:17:37.482Z,83.21
2019-06-01T02:20:05.764Z,83.08
2019-06-01T02:22:33.958Z,82.62
2019-06-01T02:25:02.215Z,81.36
2019-06-01T02:27:30.042Z,80.88
2019-06-01T02:29:57.779Z,80.61
2019-06-01T02:32:25.507Z,80.39
2019-06-01T02:34:54.328Z,80.34
2019-06-01T02:37:22.165Z,80.23
2019-06-01T02:39:50.436Z,80.33
2019-06-01T02:42:18.437Z,80.34
2019-06-01T02:44:46.413Z,80.73
2019-06-01T02:47:15.317Z,80.46
2019-06-01T02:49:43.060Z,80.97
2019-06-01T02:52:10.874Z,82.11
2019-06-01T02:54:38.651Z,83.59
2019-06-01T02:57:06.466Z,81.88
2019-06-01T02:59:36.292Z,81.18
2019-06-01T03:02:10.088Z,81.00
2019-06-01T03:04:34.036Z,81.08
2019-06-01T03:07:05.120Z,80.89
2019-06-01T03:09:34.479Z,80.99
2019-06-01T03:12:04.322Z,80.83
2019-06-01T03:14:33.528Z,80.77
2019-06-01T03:17:03.873Z,81.17
2019-06-01T03:19:35.457Z,80.87
2019-06-01T03:22:05.689Z,80.82
2019-06-01T03:24:36.674Z,80.90
2019-06-01T03:27:06.320Z,80.83
2019-06-01T03:29:55.446Z,80.88
2019-06-01T03:32:35.142Z,80.89
2019-06-01T03:34:53.385Z,80.85
2019-06-01T03:37:23.428Z,82.49
2019-06-01T03:39:51.213Z,81.71
2019-06-01T03:42:21.500Z,81.43
2019-06-01T03:44:49.178Z,81.36
2019-06-01T03:47:17.182Z,81.41
2019-06-01T03:49:44.897Z,82.55
2019-06-01T03:52:13.069Z,81.39
2019-06-01T03:54:40.927Z,81.46
2019-06-01T03:57:09.209Z,82.38
2019-06-01T03:59:37.033Z,81.77
2019-06-01T04:02:05.102Z,81.60
2019-06-01T04:04:32.868Z,81.51
2019-06-01T04:07:01.247Z,82.17
2019-06-01T04:09:29.247Z,81.42
2019-06-01T04:11:57.641Z,81.28
2019-06-01T04:14:25.468Z,81.46
2019-06-01T04:16:53.206Z,81.25
2019-06-01T04:19:21.824Z,82.01
2019-06-01T04:21:49.709Z,81.85
2019-06-01T04:24:17.492Z,82.51
2019-06-01T04:26:45.263Z,82.38
2019-06-01T04:29:13.019Z,82.85
2019-06-01T04:31:40.964Z,82.42
2019-06-01T04:34:08.846Z,83.78
2019-06-01T04:36:36.772Z,82.89
2019-06-01T04:39:07.343Z,83.71
2019-06-01T04:41:35.141Z,83.24
2019-06-01T04:44:03.775Z,82.75
2019-06-01T04:46:31.571Z,82.73
2019-06-01T04:49:00.151Z,82.77
2019-06-01T04:51:27.846Z,82.36
2019-06-01T04:53:55.615Z,84.80
2019-06-01T04:56:23.354Z,83.77
2019-06-01T04:58:51.082Z,82.49
2019-06-01T05:01:18.759Z,83.88
2019-06-01T05:03:46.513Z,83.96
2019-06-01T05:06:15.480Z,82.75
2019-06-01T05:08:43.444Z,84.18
2019-06-01T05:11:11.815Z,85.00
2019-06-01T05:13:39.694Z,84.68
2019-06-01T05:16:07.911Z,84.85
2019-06-01T05:18:35.716Z,84.46
2019-06-01T05:21:03.590Z,83.10
2019-06-01T05:23:31.348Z,82.48
2019-06-01T05:25:59.166Z,82.76
2019-06-01T05:28:26.898Z,82.90
2019-06-01T05:30:54.661Z,82.44
2019-06-01T05:33:36.541Z,81.80
2019-06-01T05:35:52.309Z,81.57
2019-06-01T05:38:20.089Z,83.57
2019-06-01T05:40:47.924Z,83.23
2019-06-01T05:43:18.090Z,82.60
2019-06-01T05:45:45.413Z,82.63
2019-06-01T05:48:22.910Z,81.20
2019-06-01T05:50:47.926Z,82.00
2019-06-01T05:53:16.749Z,80.88
2019-06-01T05:55:44.624Z,80.79
2019-06-01T05:58:13.011Z,80.67
2019-06-01T06:00:42.210Z,80.44
2019-06-01T06:03:12.893Z,80.88
2019-06-01T06:05:39.801Z,80.84
2019-06-01T06:08:08.260Z,80.57
2019-06-01T06:10:36.183Z,80.92
2019-06-01T06:13:04.104Z,80.30
2019-06-01T06:15:31.852Z,80.57
2019-06-01T06:17:59.568Z,80.11
2019-06-01T06:20:27.410Z,80.11
2019-06-01T06:22:55.922Z,80.30
2019-06-01T06:25:28.218Z,79.72
2019-06-01T06:27:54.016Z,79.95
2019-06-01T06:30:21.803Z,79.65
2019-06-01T06:32:49.979Z,78.52
2019-06-01T06:35:17.848Z,77.91
2019-06-01T06:37:45.546Z,77.90
2019-06-01T06:40:14.947Z,77.62
2019-06-01T06:42:43.723Z,77.20
2019-06-01T06:45:12.460Z,77.18
2019-06-01T06:47:40.849Z,77.20
2019-06-01T06:50:14.628Z,77.44
2019-06-01T06:52:41.879Z,76.74
2019-06-01T06:55:09.852Z,76.09
2019-06-01T06:57:37.620Z,75.72
2019-06-01T07:00:05.776Z,74.81
2019-06-01T07:02:33.593Z,74.21
2019-06-01T07:05:01.469Z,73.66
2019-06-01T07:07:29.260Z,72.40
2019-06-01T07:09:57.812Z,72.49
2019-06-01T07:12:25.529Z,72.21
2019-06-01T07:14:53.302Z,71.54
2019-06-01T07:17:23.533Z,70.75
2019-06-01T07:19:51.513Z,71.28
2019-06-01T07:22:19.905Z,69.81
2019-06-01T07:24:47.901Z,70.39
2019-06-01T07:27:15.570Z,69.29
2019-06-01T07:29:43.258Z,68.51
2019-06-01T07:32:11.037Z,68.95
2019-06-01T07:34:42.036Z,68.46
2019-06-01T07:37:08.756Z,68.28
2019-06-01T07:39:36.708Z,68.03
2019-06-01T07:42:07.442Z,66.79
2019-06-01T07:44:35.833Z,66.57
2019-06-01T07:47:03.677Z,66.09
2019-06-01T07:49:31.514Z,65.58
2019-06-01T07:52:11.760Z,65.56
2019-06-01T07:54:28.946Z,64.90
2019-06-01T07:56:57.751Z,64.01
2019-06-01T07:59:26.356Z,62.98
2019-06-01T08:01:54.662Z,63.89
2019-06-01T08:04:24.660Z,64.38
2019-06-01T08:06:52.799Z,63.20
2019-06-01T08:09:22.020Z,62.87
2019-06-01T08:11:50.325Z,62.89
2019-06-01T08:14:18.271Z,61.14
2019-06-01T08:16:54.901Z,60.76
2019-06-01T08:19:23.856Z,61.39
2019-06-01T08:21:51.768Z,62.26
2019-06-01T08:24:19.654Z,61.85
2019-06-01T08:26:47.573Z,61.72
2019-06-01T08:29:15.296Z,62.11
2019-06-01T08:31:43.179Z,62.14
2019-06-01T08:34:11.044Z,62.33
2019-06-01T08:36:38.889Z,61.25
2019-06-01T08:39:06.846Z,60.43
2019-06-01T08:41:34.685Z,59.16
2019-06-01T08:44:03.812Z,60.43
2019-06-01T08:46:31.785Z,60.02
2019-06-01T08:48:59.552Z,59.60
2019-06-01T08:51:39.546Z,59.81
2019-06-01T08:54:07.348Z,58.47
2019-06-01T08:56:35.107Z,59.21
2019-06-01T08:59:03.061Z,59.18
2019-06-01T09:01:36.195Z,58.74
2019-06-01T09:04:04.593Z,58.96
2019-06-01T09:06:33.250Z,57.91
2019-06-01T09:09:01.126Z,57.32
2019-06-01T09:11:29.308Z,57.05
2019-06-01T09:13:57.718Z,57.38
2019-06-01T09:16:25.627Z,57.23
2019-06-01T09:18:53.375Z,56.62
2019-06-01T09:21:21.218Z,56.15
2019-06-01T09:23:48.900Z,55.25
2019-06-01T09:26:16.664Z,54.20
2019-06-01T09:28:44.591Z,53.50
2019-06-01T09:31:13.409Z,52.07
2019-06-01T09:33:41.122Z,52.35
2019-06-01T09:36:09.714Z,52.04
2019-06-01T09:38:37.893Z,50.39
2019-06-01T09:41:05.663Z,50.72
2019-06-01T09:43:33.505Z,51.27
2019-06-01T09:46:01.206Z,50.83
2019-06-01T09:48:29.395Z,50.61
2019-06-01T09:50:57.151Z,51.37
2019-06-01T09:53:24.898Z,51.63
2019-06-01T09:55:52.733Z,51.70
2019-06-01T09:58:20.588Z,50.67
2019-06-01T10:00:48.685Z,49.11
2019-06-01T10:03:22.653Z,50.60
2019-06-01T10:06:01.561Z,48.87
2019-06-01T10:08:20.074Z,49.57
2019-06-01T10:10:47.849Z,47.67
2019-06-01T10:13:15.763Z,47.52
2019-06-01T10:15:43.474Z,48.17
2019-06-01T10:18:11.248Z,47.11
2019-06-01T10:20:39.271Z,46.67
2019-06-01T10:23:07.513Z,46.53
2019-06-01T10:25:36.482Z,46.35
2019-06-01T10:28:04.394Z,46.09
2019-06-01T10:30:32.221Z,45.75
2019-06-01T10:33:00.963Z,45.08
2019-06-01T10:35:30.722Z,46.12
2019-06-01T10:37:58.587Z,45.98
2019-06-01T10:40:27.004Z,45.72
2019-06-01T10:42:54.737Z,43.88
2019-06-01T10:45:22.511Z,43.03
2019-06-01T10:47:50.491Z,41.89
2019-06-01T10:50:18.398Z,44.02
2019-06-01T10:52:46.248Z,44.01
2019-06-01T10:55:14.755Z,41.50
2019-06-01T10:57:42.840Z,42.68
2019-06-01T11:00:12.063Z,42.17
2019-06-01T11:02:40.812Z,41.73
2019-06-01T11:05:15.936Z,40.14
2019-06-01T11:07:43.727Z,41.05
2019-06-01T11:10:13.242Z,39.94
2019-06-01T11:12:41.248Z,40.39
2019-06-01T11:15:09.440Z,40.63
2019-06-01T11:17:37.393Z,42.15
2019-06-01T11:20:08.962Z,42.32
2019-06-01T11:22:37.564Z,42.45
2019-06-01T11:25:06.381Z,42.57
2019-06-01T11:27:35.616Z,43.31
2019-06-01T11:30:04.925Z,44.23
2019-06-01T11:32:33.681Z,44.70
2019-06-01T11:35:01.789Z,44.99
2019-06-01T11:37:29.522Z,45.29
2019-06-01T11:39:57.581Z,45.04
2019-06-01T11:42:25.303Z,46.02
2019-06-01T11:44:53.080Z,45.20
2019-06-01T11:47:20.793Z,46.17
2019-06-01T11:49:48.679Z,46.15
2019-06-01T11:52:16.413Z,46.14
2019-06-01T11:54:45.469Z,46.42
2019-06-01T11:57:13.601Z,46.90
2019-06-01T11:59:41.659Z,46.75
2019-06-01T12:02:09.510Z,46.50
2019-06-01T12:04:37.837Z,45.62
2019-06-01T12:07:17.597Z,45.37
2019-06-01T12:09:37.836Z,45.52
2019-06-01T12:12:05.640Z,45.38
2019-06-01T12:14:34.190Z,45.39
2019-06-01T12:17:02.326Z,44.49
2019-06-01T12:19:30.689Z,44.04
2019-06-01T12:21:58.409Z,44.69
2019-06-01T12:24:26.202Z,43.64
2019-06-01T12:26:54.061Z,43.42
2019-06-01T12:29:22.719Z,43.17
2019-06-01T12:31:50.391Z,40.69
2019-06-01T12:34:18.237Z,41.35
2019-06-01T12:36:46.410Z,40.69
2019-06-01T12:39:14.342Z,40.02
2019-06-01T12:41:43.443Z,40.12
2019-06-01T12:44:14.876Z,39.88
2019-06-01T12:46:43.844Z,40.08
2019-06-01T12:49:11.840Z,39.32
2019-06-01T12:51:40.554Z,37.16
2019-06-01T12:54:08.826Z,37.92
2019-06-01T12:56:36.553Z,37.02
2019-06-01T12:59:04.932Z,37.29
2019-06-01T13:01:32.763Z,37.27
2019-06-01T13:04:01.464Z,37.77
2019-06-01T13:06:29.298Z,38.29
2019-06-01T13:08:57.080Z,38.32
2019-06-01T13:11:24.887Z,38.82
2019-06-01T13:13:52.762Z,38.87
2019-06-01T13:16:20.562Z,38.78
2019-06-01T13:18:49.510Z,38.91
2019-06-01T13:21:17.472Z,38.41
2019-06-01T13:23:45.448Z,38.86
2019-06-01T13:26:13.262Z,38.97
2019-06-01T13:28:48.354Z,41.18
2019-06-01T13:31:27.395Z,40.86
2019-06-01T13:33:55.261Z,42.08
2019-06-01T13:36:23.471Z,42.16
2019-06-01T13:38:51.180Z,42.01
2019-06-01T13:41:18.929Z,42.36
2019-06-01T13:43:47.258Z,42.05
2019-06-01T13:46:15.232Z,41.00
2019-06-01T13:48:43.554Z,41.59
2019-06-01T13:51:11.573Z,41.50
2019-06-01T13:53:39.511Z,41.16
2019-06-01T13:56:07.357Z,40.66
2019-06-01T13:58:35.149Z,40.09
2019-06-01T14:01:03.406Z,39.48
2019-06-01T14:03:31.239Z,38.87
2019-06-01T14:06:01.067Z,39.12
2019-06-01T14:08:31.238Z,38.46
2019-06-01T14:11:00.091Z,38.43
2019-06-01T14:13:28.489Z,37.20
2019-06-01T14:15:56.347Z,37.98
2019-06-01T14:18:24.059Z,38.10
2019-06-01T14:20:51.856Z,37.91
2019-06-01T14:23:19.812Z,37.47
2019-06-01T14:25:50.095Z,38.55
2019-06-01T14:28:17.910Z,38.43
2019-06-01T14:30:46.144Z,39.10
2019-06-01T14:33:13.967Z,38.87
2019-06-01T14:35:41.788Z,38.40
2019-06-01T14:38:10.290Z,37.91
2019-06-01T14:40:41.302Z,36.98
2019-06-01T14:43:07.710Z,38.37
2019-06-01T14:45:35.558Z,38.19
2019-06-01T14:48:03.455Z,38.25
2019-06-01T14:50:31.343Z,38.21
2019-06-01T14:52:59.079Z,37.78
2019-06-01T14:55:26.921Z,38.51
2019-06-01T14:57:55.915Z,39.29
2019-06-01T15:00:25.205Z,39.15
2019-06-01T15:02:54.325Z,38.27
2019-06-01T15:05:22.420Z,39.07
2019-06-01T15:07:50.244Z,38.82
2019-06-01T15:10:18.213Z,39.41
2019-06-01T15:12:52.493Z,40.38
2019-06-01T15:15:17.131Z,40.86
2019-06-01T15:17:44.867Z,40.75
2019-06-01T15:20:12.804Z,40.31
2019-06-01T15:22:40.706Z,39.69
2019-06-01T15:25:09.234Z,39.52
2019-06-01T15:27:37.252Z,38.56
2019-06-01T15:30:05.782Z,39.08
2019-06-01T15:32:33.661Z,38.75
2019-06-01T15:35:03.113Z,39.69
2019-06-01T15:37:31.318Z,39.22
2019-06-01T15:39:59.051Z,39.39
2019-06-01T15:42:26.821Z,39.11
2019-06-01T15:44:55.076Z,39.11
2019-06-01T15:47:24.273Z,38.98
2019-06-01T15:49:51.954Z,38.57
2019-06-01T15:52:19.719Z,37.97
2019-06-01T15:54:48.347Z,37.34
2019-06-01T15:57:16.206Z,37.81
2019-06-01T15:59:43.933Z,37.90
2019-06-01T16:02:11.728Z,37.60
2019-06-01T16:04:39.555Z,37.35
2019-06-01T16:07:08.050Z,37.60
2019-06-01T16:09:42.806Z,36.50
2019-06-01T16:12:05.700Z,36.75
2019-06-01T16:14:33.624Z,37.24
2019-06-01T16:17:02.928Z,37.15
2019-06-01T16:19:31.307Z,36.70
2019-06-01T16:22:00.306Z,35.63
2019-06-01T16:24:28.219Z,36.32
2019-06-01T16:26:56.357Z,36.24
2019-06-01T16:29:24.249Z,36.12
2019-06-01T16:31:52.073Z,36.53
2019-06-01T16:34:20.404Z,36.98
2019-06-01T16:36:48.282Z,37.28
2019-06-01T16:39:16.010Z,37.53
2019-06-01T16:41:44.262Z,38.36
2019-06-01T16:44:12.429Z,38.33
2019-06-01T16:46:40.233Z,38.89
2019-06-01T16:49:07.956Z,39.17
2019-06-01T16:51:52.309Z,38.94
2019-06-01T16:54:20.251Z,38.45
2019-06-01T16:56:48.161Z,38.84
2019-06-01T16:59:15.997Z,39.25
2019-06-01T17:01:43.834Z,39.09
2019-06-01T17:04:12.599Z,38.95
2019-06-01T17:06:41.095Z,40.15
2019-06-01T17:09:09.544Z,40.36
2019-06-01T17:11:37.476Z,40.52
2019-06-01T17:14:06.965Z,40.47
2019-06-01T17:16:35.201Z,40.76
2019-06-01T17:19:03.138Z,40.30
2019-06-01T17:21:31.034Z,40.20
2019-06-01T17:23:59.456Z,40.25
2019-06-01T17:26:27.471Z,40.29
2019-06-01T17:28:55.379Z,40.98
2019-06-01T17:31:23.192Z,40.56
2019-06-01T17:33:51.194Z,40.37
2019-06-01T17:36:19.250Z,40.64
2019-06-01T17:38:47.137Z,40.68
2019-06-01T17:41:15.073Z,40.59
2019-06-01T17:43:43.019Z,40.72
2019-06-01T17:46:11.956Z,41.56
2019-06-01T17:48:40.214Z,41.58
2019-06-01T17:51:08.624Z,42.08
2019-06-01T17:53:36.657Z,42.37
2019-06-01T17:56:04.508Z,42.54
2019-06-01T17:58:33.006Z,42.86
2019-06-01T18:01:01.862Z,42.85
2019-06-01T18:03:29.992Z,43.04
2019-06-01T18:05:57.811Z,43.14
2019-06-01T18:08:25.588Z,43.43
2019-06-01T18:10:55.033Z,43.61
2019-06-01T18:13:23.193Z,43.65
2019-06-01T18:15:50.981Z,44.13
2019-06-01T18:18:18.901Z,44.37
2019-06-01T18:20:46.922Z,44.83
2019-06-01T18:23:14.809Z,45.28
2019-06-01T18:25:43.008Z,45.67
2019-06-01T18:28:17.130Z,45.78
2019-06-01T18:30:40.803Z,46.34
2019-06-01T18:33:09.071Z,46.57
2019-06-01T18:35:37.543Z,47.26
2019-06-01T18:38:05.879Z,47.66
2019-06-01T18:40:33.923Z,48.57
2019-06-01T18:43:05.954Z,48.50
2019-06-01T18:45:34.708Z,48.72
2019-06-01T18:48:03.602Z,48.85
2019-06-01T18:50:33.421Z,49.38
2019-06-01T18:53:01.318Z,49.16
2019-06-01T18:55:29.088Z,49.40
2019-06-01T18:58:00.445Z,49.85
2019-06-01T19:00:28.406Z,50.09
2019-06-01T19:02:56.285Z,50.51
2019-06-01T19:05:24.000Z,51.28
2019-06-01T19:07:51.818Z,51.41
2019-06-01T19:10:19.781Z,51.54
2019-06-01T19:12:47.847Z,51.68
2019-06-01T19:15:27.505Z,52.37
2019-06-01T19:17:46.444Z,52.15
2019-06-01T19:20:16.957Z,52.35
2019-06-01T19:22:44.879Z,53.23
2019-06-01T19:25:14.993Z,53.22
2019-06-01T19:27:42.748Z,53.37
2019-06-01T19:30:10.995Z,53.47
2019-06-01T19:32:39.127Z,54.20
2019-06-01T19:35:07.640Z,53.90
2019-06-01T19:37:39.085Z,53.92
2019-06-01T19:40:07.274Z,54.02
2019-06-01T19:42:35.001Z,53.91
2019-06-01T19:45:03.191Z,54.08
2019-06-01T19:47:31.256Z,54.45
2019-06-01T19:49:59.151Z,54.42
2019-06-01T19:52:29.147Z,54.59
2019-06-01T19:54:57.092Z,54.56
2019-06-01T19:57:24.825Z,54.74
2019-06-01T19:59:52.559Z,54.91
2019-06-01T20:02:32.830Z,55.17
2019-06-01T20:04:50.766Z,55.25
2019-06-01T20:07:19.299Z,55.79
2019-06-01T20:09:47.209Z,55.80
2019-06-01T20:12:17.139Z,55.86
2019-06-01T20:14:44.660Z,55.77
2019-06-01T20:17:13.485Z,55.90
2019-06-01T20:19:41.413Z,56.02
2019-06-01T20:22:09.115Z,56.18
2019-06-01T20:24:36.865Z,56.29
2019-06-01T20:27:05.055Z,56.54
2019-06-01T20:29:32.791Z,56.68
2019-06-01T20:32:00.590Z,57.36
2019-06-01T20:34:28.359Z,57.50
2019-06-01T20:36:56.137Z,57.82
2019-06-01T20:39:24.040Z,58.21
2019-06-01T20:41:51.911Z,58.68
2019-06-01T20:44:20.711Z,58.85
2019-06-01T20:46:48.637Z,59.39
2019-06-01T20:49:16.822Z,59.49
2019-06-01T20:51:44.833Z,59.80
2019-06-01T20:54:13.007Z,59.91
2019-06-01T20:56:50.433Z,60.19
2019-06-01T20:59:20.276Z,60.92
2019-06-01T21:01:47.869Z,61.03
2019-06-01T21:04:16.200Z,61.43
2019-06-01T21:06:43.986Z,61.60
2019-06-01T21:09:11.700Z,61.47
2019-06-01T21:11:39.446Z,62.15
2019-06-01T21:14:07.807Z,61.91
2019-06-01T21:16:35.674Z,62.04
2019-06-01T21:19:03.665Z,62.11
2019-06-01T21:21:31.441Z,62.25
2019-06-01T21:23:59.260Z,62.93
2019-06-01T21:26:27.001Z,62.99
2019-06-01T21:28:54.715Z,63.07
2019-06-01T21:31:23.232Z,63.31
2019-06-01T21:33:51.123Z,63.53
2019-06-01T21:36:19.461Z,63.57
2019-06-01T21:38:47.349Z,63.77
2019-06-01T21:41:15.498Z,63.88
2019-06-01T21:43:43.304Z,64.26
2019-06-01T21:46:11.273Z,64.43
2019-06-01T21:48:38.997Z,64.62
2019-06-01T21:51:06.772Z,65.00
2019-06-01T21:53:34.576Z,65.51
2019-06-01T21:56:02.395Z,65.61
2019-06-01T21:58:30.098Z,65.99
2019-06-01T22:00:57.984Z,65.92
2019-06-01T22:03:27.089Z,66.55
2019-06-01T22:05:55.195Z,66.35
2019-06-01T22:08:23.286Z,66.62
2019-06-01T22:10:51.120Z,66.76
2019-06-01T22:13:22.314Z,66.74
2019-06-01T22:15:48.792Z,66.88
2019-06-01T22:18:17.612Z,66.97
2019-06-01T22:20:45.580Z,66.99
2019-06-01T22:23:13.323Z,67.39
2019-06-01T22:25:41.100Z,67.42
2019-06-01T22:28:08.896Z,67.53
2019-06-01T22:30:36.784Z,67.54
2019-06-01T22:33:04.616Z,67.76
2019-06-01T22:35:33.415Z,67.87
2019-06-01T22:38:01.164Z,67.99
2019-06-01T22:40:29.481Z,68.23
2019-06-01T22:42:57.259Z,68.38
2019-06-01T22:45:25.060Z,68.75
2019-06-01T22:47:52.923Z,68.56
2019-06-01T22:50:20.830Z,68.88
2019-06-01T22:52:48.619Z,69.04
2019-06-01T22:55:16.522Z,69.39
2019-06-01T22:57:44.406Z,69.28
2019-06-01T23:00:17.850Z,69.66
2019-06-01T23:02:45.666Z,69.66
2019-06-01T23:05:13.376Z,69.44
2019-06-01T23:07:41.116Z,69.50
2019-06-01T23:10:09.329Z,69.53
2019-06-01T23:12:37.171Z,69.62
2019-06-01T23:15:05.428Z,69.74
2019-06-01T23:17:33.315Z,69.86
2019-06-01T23:20:01.216Z,70.00
2019-06-01T23:22:30.116Z,70.14
2019-06-01T23:24:57.982Z,70.21
2019-06-01T23:27:26.180Z,70.34
2019-06-01T23:29:54.147Z,70.39
2019-06-01T23:32:22.533Z,70.57
2019-06-01T23:34:50.238Z,70.72
2019-06-01T23:37:17.985Z,71.24
2019-06-01T23:39:45.679Z,71.34
2019-06-01T23:42:13.459Z,71.27
2019-06-01T23:44:41.166Z,71.60
2019-06-01T23:47:08.940Z,71.70
2019-06-01T23:49:36.678Z,71.82
2019-06-01T23:52:04.599Z,71.91
2019-06-01T23:54:33.599Z,71.66
2019-06-01T23:57:01.703Z,71.79
2019-06-01T23:59:30.854Z,71.86
